createdAt,value
2023-02-14T00:03:42.948Z,56.68
2023-02-14T00:08:45.017Z,57.73
2023-02-14T00:14:05.491Z,57.18
2023-02-14T00:19:07.598Z,58.34
2023-02-14T00:24:21.288Z,57.47
2023-02-14T00:29:26.402Z,57.72
2023-02-14T00:34:28.343Z,56.30
2023-02-14T00:39:30.053Z,55.35
2023-02-14T00:44:31.819Z,57.60
2023-02-14T00:49:33.462Z,62.44
2023-02-14T00:54:35.112Z,57.21
2023-02-14T00:59:36.872Z,56.65
2023-02-14T01:04:38.579Z,61.10
2023-02-14T01:09:40.286Z,57.69
2023-02-14T01:14:41.915Z,58.77
2023-02-14T01:19:43.616Z,56.87
2023-02-14T01:24:45.221Z,56.60
2023-02-14T01:29:46.966Z,56.81
2023-02-14T01:34:48.709Z,58.80
2023-02-14T01:39:50.476Z,56.22
2023-02-14T01:45:19.492Z,58.15
2023-02-14T01:50:26.589Z,58.64
2023-02-14T01:55:32.811Z,58.59
2023-02-14T02:00:53.813Z,57.02
2023-02-14T02:06:03.421Z,57.40
2023-02-14T02:11:05.362Z,57.29
2023-02-14T02:16:33.143Z,56.56
2023-02-14T02:21:53.451Z,58.58
2023-02-14T02:27:16.555Z,58.75
2023-02-14T02:33:12.375Z,59.96
2023-02-14T02:38:25.989Z,57.94
2023-02-14T02:43:46.951Z,61.01
2023-02-14T02:49:03.504Z,58.62
2023-02-14T02:54:19.780Z,57.47
2023-02-14T02:59:38.466Z,59.24
2023-02-14T03:04:53.644Z,58.84
2023-02-14T03:10:00.290Z,57.30
2023-02-14T03:15:20.162Z,56.97
2023-02-14T03:20:39.700Z,58.28
2023-02-14T03:25:41.272Z,59.00
2023-02-14T03:31:37.170Z,61.21
2023-02-14T03:36:53.560Z,64.00
2023-02-14T03:42:06.734Z,60.89
2023-02-14T03:47:12.933Z,58.52
2023-02-14T03:52:16.397Z,62.78
2023-02-14T03:57:26.725Z,61.80
2023-02-14T04:02:36.585Z,60.48
2023-02-14T04:08:04.531Z,60.62
2023-02-14T04:13:06.345Z,59.07
2023-02-14T04:18:27.591Z,56.65
2023-02-14T04:23:29.292Z,60.60
2023-02-14T04:28:31.547Z,59.63
2023-02-14T04:33:33.862Z,61.53
2023-02-14T04:38:35.553Z,59.63
2023-02-14T04:43:37.278Z,59.09
2023-02-14T04:48:38.915Z,60.91
2023-02-14T04:53:40.665Z,60.18
2023-02-14T04:58:42.314Z,59.82
2023-02-14T05:03:43.970Z,60.18
2023-02-14T05:08:45.616Z,61.55
2023-02-14T05:13:47.236Z,60.24
2023-02-14T05:18:48.834Z,60.23
2023-02-14T05:23:50.515Z,60.37
2023-02-14T05:28:52.160Z,60.38
2023-02-14T05:33:53.895Z,59.10
2023-02-14T05:38:55.718Z,62.18
2023-02-14T05:43:57.375Z,60.74
2023-02-14T05:48:59.474Z,59.97
2023-02-14T05:54:01.379Z,62.29
2023-02-14T05:59:03.046Z,63.41
2023-02-14T06:04:04.762Z,60.85
2023-02-14T06:09:06.639Z,61.67
2023-02-14T06:14:08.316Z,63.74
2023-02-14T06:19:10.013Z,62.54
2023-02-14T06:24:11.765Z,60.84
2023-02-14T06:29:13.431Z,59.18
2023-02-14T06:34:16.231Z,57.81
2023-02-14T06:39:18.045Z,61.32
2023-02-14T06:44:19.720Z,61.70
2023-02-14T06:49:22.160Z,60.95
2023-02-14T06:54:23.833Z,62.13
2023-02-14T06:59:25.478Z,61.14
2023-02-14T07:04:27.158Z,60.62
2023-02-14T07:09:28.870Z,60.07
2023-02-14T07:14:30.473Z,56.53
2023-02-14T07:19:32.099Z,59.09
2023-02-14T07:24:33.802Z,59.25
2023-02-14T07:29:36.027Z,57.62
2023-02-14T07:34:37.705Z,59.64
2023-02-14T07:39:39.393Z,58.21
2023-02-14T07:44:41.173Z,59.84
2023-02-14T07:49:42.877Z,57.36
2023-02-14T07:54:44.562Z,57.33
2023-02-14T07:59:46.192Z,56.98
2023-02-14T08:04:47.835Z,56.59
2023-02-14T08:09:49.513Z,57.34
2023-02-14T08:14:51.198Z,57.90
2023-02-14T08:19:52.858Z,58.31
2023-02-14T08:24:54.490Z,59.80
2023-02-14T08:29:56.130Z,58.02
2023-02-14T08:34:57.787Z,57.65
2023-02-14T08:39:59.492Z,56.49
2023-02-14T08:45:01.149Z,56.47
2023-02-14T08:50:03.647Z,56.12
2023-02-14T08:55:05.773Z,60.57
2023-02-14T09:00:10.050Z,59.42
2023-02-14T09:05:11.798Z,58.71
2023-02-14T09:10:13.430Z,55.83
2023-02-14T09:15:15.149Z,57.03
2023-02-14T09:20:16.968Z,56.98
2023-02-14T09:25:18.699Z,57.67
2023-02-14T09:30:20.360Z,59.77
2023-02-14T09:35:40.635Z,58.97
2023-02-14T09:40:42.869Z,57.30
2023-02-14T09:45:53.520Z,58.83
2023-02-14T09:51:00.894Z,59.24
2023-02-14T09:56:18.225Z,59.98
2023-02-14T10:01:29.229Z,57.76
2023-02-14T10:06:36.757Z,57.37
2023-02-14T10:11:40.605Z,58.00
2023-02-14T10:16:45.427Z,60.87
2023-02-14T10:21:54.879Z,57.84
2023-02-14T10:27:12.193Z,57.31
2023-02-14T10:32:18.903Z,59.45
2023-02-14T10:37:48.448Z,59.15
2023-02-14T10:43:07.917Z,58.87
2023-02-14T10:48:27.729Z,55.02
2023-02-14T10:53:48.115Z,56.97
2023-02-14T10:58:52.752Z,59.49
2023-02-14T11:06:31.195Z,63.21
2023-02-14T11:11:43.989Z,63.96
2023-02-14T11:16:46.086Z,62.67
2023-02-14T11:21:50.920Z,61.57
2023-02-14T11:26:56.802Z,62.33
2023-02-14T11:32:25.716Z,61.51
2023-02-14T11:37:27.389Z,60.46
2023-02-14T11:42:36.810Z,61.65
2023-02-14T11:47:41.535Z,63.04
2023-02-14T11:52:51.236Z,62.76
2023-02-14T11:57:54.061Z,59.89
2023-02-14T12:02:56.802Z,60.46
2023-02-14T12:08:02.221Z,61.26
2023-02-14T12:13:09.855Z,61.87
2023-02-14T12:18:33.232Z,61.96
2023-02-14T12:23:51.954Z,61.55
2023-02-14T12:29:17.278Z,62.57
2023-02-14T12:34:20.451Z,60.54
2023-02-14T12:39:25.057Z,59.20
2023-02-14T12:44:42.262Z,63.04
2023-02-14T12:50:14.581Z,64.61
2023-02-14T12:55:35.095Z,59.18
2023-02-14T13:00:55.333Z,62.70
2023-02-14T13:06:27.450Z,63.17
2023-02-14T13:11:34.700Z,61.42
2023-02-14T13:16:40.936Z,63.39
2023-02-14T13:21:43.454Z,62.70
2023-02-14T13:26:49.501Z,65.70
2023-02-14T13:31:57.414Z,62.68
2023-02-14T13:37:02.638Z,60.77
2023-02-14T13:42:05.488Z,63.20
2023-02-14T13:47:15.424Z,62.76
2023-02-14T13:52:45.112Z,65.61
2023-02-14T13:58:00.405Z,61.88
2023-02-14T14:03:02.733Z,62.11
2023-02-14T14:08:23.362Z,61.55
2023-02-14T14:13:43.155Z,61.48
2023-02-14T14:18:44.963Z,61.95
2023-02-14T14:24:20.671Z,59.57
2023-02-14T14:29:38.416Z,61.76
2023-02-14T14:34:49.843Z,60.57
2023-02-14T14:39:55.658Z,63.44
2023-02-14T14:45:01.905Z,61.96
2023-02-14T14:50:14.382Z,60.81
2023-02-14T14:55:29.065Z,61.98
2023-02-14T15:00:36.371Z,60.47
2023-02-14T15:05:43.686Z,63.16
2023-02-14T15:11:09.119Z,61.95
2023-02-14T15:16:10.930Z,61.62
2023-02-14T15:21:14.091Z,62.98
2023-02-14T15:26:31.651Z,63.69
2023-02-14T15:31:36.965Z,64.06
2023-02-14T15:36:49.149Z,61.28
2023-02-14T15:41:54.054Z,63.75
2023-02-14T15:47:05.675Z,63.73
2023-02-14T15:52:07.900Z,63.41
2023-02-14T15:57:25.484Z,62.92
2023-02-14T16:02:36.233Z,64.68
2023-02-14T16:07:38.068Z,63.72
2023-02-14T16:12:42.213Z,64.13
2023-02-14T16:17:44.137Z,63.94
2023-02-14T16:22:45.821Z,64.61
2023-02-14T16:27:47.440Z,63.94
2023-02-14T16:32:50.813Z,64.18
2023-02-14T16:37:52.652Z,65.13
2023-02-14T16:42:55.072Z,64.96
2023-02-14T16:47:56.747Z,64.18
2023-02-14T16:52:58.630Z,65.45
2023-02-14T16:58:02.282Z,64.48
2023-02-14T17:03:06.681Z,63.92
2023-02-14T17:08:12.310Z,62.46
2023-02-14T17:13:19.275Z,64.93
2023-02-14T17:18:22.610Z,63.67
2023-02-14T17:23:24.607Z,63.57
2023-02-14T17:28:26.703Z,64.00
2023-02-14T17:33:30.500Z,63.98
2023-02-14T17:38:32.714Z,64.28
2023-02-14T17:43:34.430Z,63.63
2023-02-14T17:48:36.081Z,64.07
2023-02-14T17:53:38.294Z,65.60
2023-02-14T17:58:40.697Z,64.06
2023-02-14T18:03:42.424Z,62.96
2023-02-14T18:08:46.331Z,63.42
2023-02-14T18:13:48.671Z,62.42
2023-02-14T18:18:50.794Z,63.33
2023-02-14T18:23:52.507Z,61.77
2023-02-14T18:28:54.508Z,65.15
2023-02-14T18:33:56.865Z,63.11
2023-02-14T18:38:59.158Z,63.38
2023-02-14T18:44:01.192Z,65.19
2023-02-14T18:49:06.078Z,63.74
2023-02-14T18:54:07.981Z,61.84
2023-02-14T18:59:11.065Z,63.32
2023-02-14T19:04:13.497Z,61.63
2023-02-14T19:09:17.432Z,61.26
2023-02-14T19:14:19.059Z,61.42
2023-02-14T19:19:22.924Z,60.74
2023-02-14T19:24:25.687Z,59.41
2023-02-14T19:29:27.481Z,61.61
2023-02-14T19:34:30.726Z,62.57
2023-02-14T19:39:32.637Z,64.05
2023-02-14T19:44:34.343Z,60.39
2023-02-14T19:49:36.324Z,62.33
2023-02-14T19:54:39.120Z,59.18
2023-02-14T19:59:40.959Z,61.85
2023-02-14T20:04:42.853Z,60.17
2023-02-14T20:09:44.595Z,60.69
2023-02-14T20:14:51.195Z,59.09
2023-02-14T20:19:53.553Z,60.10
2023-02-14T20:24:55.221Z,59.29
2023-02-14T20:29:57.010Z,58.75
2023-02-14T20:34:58.927Z,59.04
2023-02-14T20:40:00.616Z,59.04
2023-02-14T20:45:02.204Z,59.18
2023-02-14T20:50:03.987Z,59.69
2023-02-14T20:55:06.189Z,58.90
2023-02-14T21:00:10.569Z,59.69
2023-02-14T21:05:12.336Z,60.79
2023-02-14T21:10:14.869Z,59.63
2023-02-14T21:15:16.692Z,60.63
2023-02-14T21:20:19.675Z,61.69
2023-02-14T21:25:23.783Z,65.86
2023-02-14T21:30:31.031Z,64.63
2023-02-14T21:35:36.386Z,61.12
2023-02-14T21:40:38.121Z,57.96
2023-02-14T21:45:55.088Z,58.77
2023-02-14T21:50:56.781Z,63.53
2023-02-14T21:56:05.341Z,60.53
2023-02-14T22:01:07.544Z,61.28
2023-02-14T22:06:10.207Z,62.53
2023-02-14T22:11:15.679Z,59.43
2023-02-14T22:16:19.678Z,61.14
2023-02-14T22:21:23.943Z,60.78
2023-02-14T22:26:28.355Z,60.30
2023-02-14T22:31:34.116Z,60.18
2023-02-14T22:36:36.013Z,58.56
2023-02-14T22:41:38.031Z,59.49
2023-02-14T22:46:40.027Z,57.91
2023-02-14T22:51:42.845Z,58.62
2023-02-14T22:56:46.848Z,59.35
2023-02-14T23:01:49.794Z,59.93
2023-02-14T23:06:52.899Z,58.79
2023-02-14T23:11:54.745Z,58.54
2023-02-14T23:17:14.729Z,58.30
2023-02-14T23:22:28.042Z,59.70
2023-02-14T23:27:39.617Z,58.92
2023-02-14T23:32:41.480Z,56.91
2023-02-14T23:37:43.379Z,60.53
2023-02-14T23:42:44.989Z,59.26
2023-02-14T23:47:46.616Z,57.87
2023-02-14T23:52:48.265Z,56.91
2023-02-14T23:57:49.954Z,58.22
